sensor_id;sensor_type;location;lat;lon;timestamp;P1;durP1;ratioP1;P2;durP2;ratioP2
62574;SDS011;53112;45.602;11.904;2023-03-21T00:01:11;26.63;;;12.10;;
62574;SDS011;53112;45.602;11.904;2023-03-21T00:03:38;28.80;;;12.75;;
62574;SDS011;53112;45.602;11.904;2023-03-21T00:06:08;26.40;;;11.60;;
62574;SDS011;53112;45.602;11.904;2023-03-21T00:08:36;31.63;;;13.90;;
62574;SDS011;53112;45.602;11.904;2023-03-21T00:11:04;27.48;;;12.65;;
62574;SDS011;53112;45.602;11.904;2023-03-21T00:13:32;27.77;;;12.45;;
62574;SDS011;53112;45.602;11.904;2023-03-21T00:16:05;27.33;;;11.20;;
62574;SDS011;53112;45.602;11.904;2023-03-21T00:18:34;27.08;;;11.88;;
62574;SDS011;53112;45.602;11.904;2023-03-21T00:21:06;26.38;;;11.95;;
62574;SDS011;53112;45.602;11.904;2023-03-21T00:23:34;25.08;;;11.68;;
62574;SDS011;53112;45.602;11.904;2023-03-21T00:26:00;29.27;;;12.13;;
62574;SDS011;53112;45.602;11.904;2023-03-21T00:28:27;28.65;;;12.13;;
62574;SDS011;53112;45.602;11.904;2023-03-21T00:30:57;27.30;;;11.38;;
62574;SDS011;53112;45.602;11.904;2023-03-21T00:33:23;26.50;;;12.07;;
62574;SDS011;53112;45.602;11.904;2023-03-21T00:35:50;22.63;;;11.23;;
62574;SDS011;53112;45.602;11.904;2023-03-21T00:38:16;26.17;;;11.50;;
62574;SDS011;53112;45.602;11.904;2023-03-21T00:40:43;24.70;;;11.98;;
62574;SDS011;53112;45.602;11.904;2023-03-21T00:43:09;26.80;;;11.70;;
62574;SDS011;53112;45.602;11.904;2023-03-21T00:45:47;24.52;;;11.77;;
62574;SDS011;53112;45.602;11.904;2023-03-21T00:48:15;27.02;;;11.85;;
62574;SDS011;53112;45.602;11.904;2023-03-21T00:50:43;25.63;;;11.52;;
62574;SDS011;53112;45.602;11.904;2023-03-21T00:53:11;25.90;;;11.85;;
62574;SDS011;53112;45.602;11.904;2023-03-21T00:55:38;24.60;;;11.50;;
62574;SDS011;53112;45.602;11.904;2023-03-21T00:58:04;23.48;;;10.88;;
62574;SDS011;53112;45.602;11.904;2023-03-21T01:00:30;23.05;;;11.38;;
62574;SDS011;53112;45.602;11.904;2023-03-21T01:02:58;22.98;;;11.25;;
62574;SDS011;53112;45.602;11.904;2023-03-21T01:05:30;23.15;;;11.38;;
62574;SDS011;53112;45.602;11.904;2023-03-21T01:08:17;23.95;;;11.65;;
62574;SDS011;53112;45.602;11.904;2023-03-21T01:10:45;24.25;;;11.25;;
62574;SDS011;53112;45.602;11.904;2023-03-21T01:13:13;23.17;;;11.00;;
62574;SDS011;53112;45.602;11.904;2023-03-21T01:15:44;20.95;;;11.18;;
62574;SDS011;53112;45.602;11.904;2023-03-21T01:18:12;22.90;;;10.65;;
62574;SDS011;53112;45.602;11.904;2023-03-21T01:20:40;21.80;;;11.10;;
62574;SDS011;53112;45.602;11.904;2023-03-21T01:23:06;20.90;;;10.05;;
62574;SDS011;53112;45.602;11.904;2023-03-21T01:25:32;21.90;;;10.48;;
62574;SDS011;53112;45.602;11.904;2023-03-21T01:27:58;20.20;;;10.65;;
62574;SDS011;53112;45.602;11.904;2023-03-21T01:30:25;21.60;;;10.48;;
62574;SDS011;53112;45.602;11.904;2023-03-21T01:32:51;21.05;;;10.70;;
62574;SDS011;53112;45.602;11.904;2023-03-21T01:35:17;23.00;;;10.95;;
62574;SDS011;53112;45.602;11.904;2023-03-21T01:37:43;21.13;;;10.55;;
62574;SDS011;53112;45.602;11.904;2023-03-21T01:40:16;20.55;;;10.25;;
62574;SDS011;53112;45.602;11.904;2023-03-21T01:42:45;23.33;;;10.73;;
62574;SDS011;53112;45.602;11.904;2023-03-21T01:48:14;22.48;;;10.55;;
62574;SDS011;53112;45.602;11.904;2023-03-21T01:50:41;20.10;;;10.02;;
62574;SDS011;53112;45.602;11.904;2023-03-21T01:53:07;19.67;;;9.90;;
62574;SDS011;53112;45.602;11.904;2023-03-21T01:55:34;18.88;;;9.68;;
62574;SDS011;53112;45.602;11.904;2023-03-21T01:58:02;20.95;;;9.55;;
62574;SDS011;53112;45.602;11.904;2023-03-21T02:00:30;20.23;;;10.05;;
62574;SDS011;53112;45.602;11.904;2023-03-21T02:02:58;18.60;;;9.68;;
62574;SDS011;53112;45.602;11.904;2023-03-21T02:05:40;19.90;;;9.80;;
62574;SDS011;53112;45.602;11.904;2023-03-21T02:08:18;19.33;;;9.93;;
62574;SDS011;53112;45.602;11.904;2023-03-21T02:10:45;18.55;;;9.45;;
62574;SDS011;53112;45.602;11.904;2023-03-21T02:13:13;19.10;;;9.68;;
62574;SDS011;53112;45.602;11.904;2023-03-21T02:15:40;17.70;;;9.35;;
62574;SDS011;53112;45.602;11.904;2023-03-21T02:21:17;17.52;;;9.82;;
62574;SDS011;53112;45.602;11.904;2023-03-21T02:38:14;17.75;;;9.57;;
62574;SDS011;53112;45.602;11.904;2023-03-21T02:41:03;17.33;;;9.75;;
62574;SDS011;53112;45.602;11.904;2023-03-21T02:46:15;16.08;;;8.88;;
62574;SDS011;53112;45.602;11.904;2023-03-21T02:51:34;17.23;;;9.10;;
62574;SDS011;53112;45.602;11.904;2023-03-21T02:54:04;16.70;;;9.18;;
62574;SDS011;53112;45.602;11.904;2023-03-21T02:56:33;21.07;;;9.60;;
62574;SDS011;53112;45.602;11.904;2023-03-21T02:59:01;17.38;;;9.23;;
62574;SDS011;53112;45.602;11.904;2023-03-21T03:01:29;15.30;;;8.85;;
62574;SDS011;53112;45.602;11.904;2023-03-21T03:03:56;15.35;;;9.20;;
62574;SDS011;53112;45.602;11.904;2023-03-21T03:12:22;15.38;;;8.35;;
62574;SDS011;53112;45.602;11.904;2023-03-21T03:15:23;16.50;;;8.57;;
62574;SDS011;53112;45.602;11.904;2023-03-21T03:18:37;15.82;;;8.73;;
62574;SDS011;53112;45.602;11.904;2023-03-21T03:21:16;16.10;;;9.00;;
62574;SDS011;53112;45.602;11.904;2023-03-21T03:23:58;14.75;;;8.85;;
62574;SDS011;53112;45.602;11.904;2023-03-21T03:26:41;15.30;;;8.68;;
62574;SDS011;53112;45.602;11.904;2023-03-21T03:29:13;15.48;;;9.02;;
62574;SDS011;53112;45.602;11.904;2023-03-21T03:31:42;14.80;;;8.40;;
62574;SDS011;53112;45.602;11.904;2023-03-21T03:34:19;14.65;;;8.35;;
62574;SDS011;53112;45.602;11.904;2023-03-21T03:36:51;16.27;;;8.98;;
62574;SDS011;53112;45.602;11.904;2023-03-21T03:39:29;16.45;;;8.65;;
62574;SDS011;53112;45.602;11.904;2023-03-21T03:42:06;14.40;;;8.20;;
62574;SDS011;53112;45.602;11.904;2023-03-21T03:44:44;13.30;;;8.45;;
62574;SDS011;53112;45.602;11.904;2023-03-21T03:47:20;15.68;;;8.55;;
62574;SDS011;53112;45.602;11.904;2023-03-21T03:55:49;17.00;;;8.70;;
62574;SDS011;53112;45.602;11.904;2023-03-21T03:58:18;15.35;;;8.55;;
62574;SDS011;53112;45.602;11.904;2023-03-21T04:00:45;15.85;;;8.80;;
62574;SDS011;53112;45.602;11.904;2023-03-21T04:03:11;13.25;;;7.95;;
62574;SDS011;53112;45.602;11.904;2023-03-21T04:05:37;14.90;;;8.25;;
62574;SDS011;53112;45.602;11.904;2023-03-21T04:08:03;15.23;;;8.13;;
62574;SDS011;53112;45.602;11.904;2023-03-21T04:10:30;16.55;;;9.13;;
62574;SDS011;53112;45.602;11.904;2023-03-21T04:12:57;14.85;;;8.45;;
62574;SDS011;53112;45.602;11.904;2023-03-21T04:15:22;13.00;;;7.47;;
62574;SDS011;53112;45.602;11.904;2023-03-21T04:17:49;14.65;;;8.15;;
62574;SDS011;53112;45.602;11.904;2023-03-21T04:20:15;18.92;;;8.30;;
62574;SDS011;53112;45.602;11.904;2023-03-21T04:22:41;14.15;;;8.25;;
62574;SDS011;53112;45.602;11.904;2023-03-21T04:25:07;15.48;;;8.00;;
62574;SDS011;53112;45.602;11.904;2023-03-21T04:27:33;14.90;;;8.02;;
62574;SDS011;53112;45.602;11.904;2023-03-21T04:29:59;13.07;;;8.00;;
62574;SDS011;53112;45.602;11.904;2023-03-21T04:32:25;13.68;;;8.07;;
62574;SDS011;53112;45.602;11.904;2023-03-21T04:34:52;13.27;;;8.30;;
62574;SDS011;53112;45.602;11.904;2023-03-21T04:37:21;13.80;;;8.00;;
62574;SDS011;53112;45.602;11.904;2023-03-21T04:39:48;12.70;;;7.80;;
62574;SDS011;53112;45.602;11.904;2023-03-21T04:42:15;13.95;;;8.25;;
62574;SDS011;53112;45.602;11.904;2023-03-21T04:44:45;13.85;;;7.70;;
62574;SDS011;53112;45.602;11.904;2023-03-21T04:47:12;14.48;;;8.20;;
62574;SDS011;53112;45.602;11.904;2023-03-21T04:49:40;13.18;;;7.47;;
62574;SDS011;53112;45.602;11.904;2023-03-21T04:52:06;11.98;;;7.38;;
62574;SDS011;53112;45.602;11.904;2023-03-21T04:54:32;14.07;;;7.75;;
62574;SDS011;53112;45.602;11.904;2023-03-21T04:56:58;13.82;;;8.05;;
62574;SDS011;53112;45.602;11.904;2023-03-21T04:59:24;11.80;;;7.50;;
62574;SDS011;53112;45.602;11.904;2023-03-21T05:01:50;12.02;;;7.32;;
62574;SDS011;53112;45.602;11.904;2023-03-21T05:04:16;12.77;;;7.82;;
62574;SDS011;53112;45.602;11.904;2023-03-21T05:06:43;11.73;;;7.32;;
62574;SDS011;53112;45.602;11.904;2023-03-21T05:09:10;14.13;;;8.05;;
62574;SDS011;53112;45.602;11.904;2023-03-21T05:11:37;13.27;;;7.95;;
62574;SDS011;53112;45.602;11.904;2023-03-21T05:14:08;13.75;;;8.13;;
62574;SDS011;53112;45.602;11.904;2023-03-21T05:16:38;12.48;;;7.55;;
62574;SDS011;53112;45.602;11.904;2023-03-21T05:19:09;12.52;;;7.53;;
62574;SDS011;53112;45.602;11.904;2023-03-21T05:21:38;11.55;;;7.53;;
62574;SDS011;53112;45.602;11.904;2023-03-21T05:24:08;11.82;;;7.30;;
62574;SDS011;53112;45.602;11.904;2023-03-21T05:26:40;13.25;;;7.65;;
62574;SDS011;53112;45.602;11.904;2023-03-21T05:29:08;12.13;;;7.50;;
62574;SDS011;53112;45.602;11.904;2023-03-21T05:31:35;11.98;;;7.07;;
62574;SDS011;53112;45.602;11.904;2023-03-21T05:34:01;12.57;;;7.22;;
62574;SDS011;53112;45.602;11.904;2023-03-21T05:36:27;12.93;;;7.82;;
62574;SDS011;53112;45.602;11.904;2023-03-21T05:38:53;14.15;;;7.68;;
62574;SDS011;53112;45.602;11.904;2023-03-21T05:41:19;12.52;;;7.40;;
62574;SDS011;53112;45.602;11.904;2023-03-21T05:43:45;11.80;;;7.10;;
62574;SDS011;53112;45.602;11.904;2023-03-21T05:46:11;12.02;;;7.20;;
62574;SDS011;53112;45.602;11.904;2023-03-21T05:48:37;10.98;;;7.22;;
62574;SDS011;53112;45.602;11.904;2023-03-21T05:51:04;11.75;;;7.20;;
62574;SDS011;53112;45.602;11.904;2023-03-21T05:53:31;10.80;;;7.10;;
62574;SDS011;53112;45.602;11.904;2023-03-21T05:55:56;11.45;;;7.57;;
62574;SDS011;53112;45.602;11.904;2023-03-21T05:58:22;10.70;;;6.53;;
62574;SDS011;53112;45.602;11.904;2023-03-21T06:00:48;10.98;;;7.03;;
62574;SDS011;53112;45.602;11.904;2023-03-21T06:03:15;16.13;;;7.05;;
62574;SDS011;53112;45.602;11.904;2023-03-21T06:05:41;13.13;;;7.20;;
62574;SDS011;53112;45.602;11.904;2023-03-21T06:08:07;12.43;;;7.05;;
62574;SDS011;53112;45.602;11.904;2023-03-21T06:10:33;11.65;;;7.28;;
62574;SDS011;53112;45.602;11.904;2023-03-21T06:12:59;12.57;;;6.55;;
62574;SDS011;53112;45.602;11.904;2023-03-21T06:15:25;11.55;;;6.85;;
62574;SDS011;53112;45.602;11.904;2023-03-21T06:17:51;11.02;;;6.70;;
62574;SDS011;53112;45.602;11.904;2023-03-21T06:20:17;11.73;;;6.65;;
62574;SDS011;53112;45.602;11.904;2023-03-21T06:22:43;12.20;;;7.28;;
62574;SDS011;53112;45.602;11.904;2023-03-21T06:25:09;11.50;;;7.18;;
62574;SDS011;53112;45.602;11.904;2023-03-21T06:27:36;12.20;;;7.05;;
62574;SDS011;53112;45.602;11.904;2023-03-21T06:30:02;11.73;;;6.80;;
62574;SDS011;53112;45.602;11.904;2023-03-21T06:32:30;11.45;;;7.68;;
62574;SDS011;53112;45.602;11.904;2023-03-21T06:34:56;11.05;;;6.68;;
62574;SDS011;53112;45.602;11.904;2023-03-21T06:37:22;11.82;;;6.88;;
62574;SDS011;53112;45.602;11.904;2023-03-21T06:39:48;11.15;;;7.28;;
62574;SDS011;53112;45.602;11.904;2023-03-21T06:42:14;11.85;;;6.85;;
62574;SDS011;53112;45.602;11.904;2023-03-21T06:44:40;11.80;;;7.30;;
62574;SDS011;53112;45.602;11.904;2023-03-21T06:47:06;10.32;;;7.45;;
62574;SDS011;53112;45.602;11.904;2023-03-21T06:49:32;11.50;;;7.10;;
62574;SDS011;53112;45.602;11.904;2023-03-21T06:51:58;11.88;;;7.57;;
62574;SDS011;53112;45.602;11.904;2023-03-21T06:54:24;11.30;;;7.18;;
62574;SDS011;53112;45.602;11.904;2023-03-21T06:56:50;12.68;;;7.28;;
62574;SDS011;53112;45.602;11.904;2023-03-21T06:59:16;10.98;;;7.53;;
62574;SDS011;53112;45.602;11.904;2023-03-21T07:01:42;10.20;;;6.85;;
62574;SDS011;53112;45.602;11.904;2023-03-21T07:04:08;12.05;;;7.57;;
62574;SDS011;53112;45.602;11.904;2023-03-21T07:06:34;12.75;;;7.85;;
62574;SDS011;53112;45.602;11.904;2023-03-21T07:09:01;14.40;;;7.90;;
62574;SDS011;53112;45.602;11.904;2023-03-21T07:11:29;12.65;;;7.95;;
62574;SDS011;53112;45.602;11.904;2023-03-21T07:13:56;12.82;;;7.88;;
62574;SDS011;53112;45.602;11.904;2023-03-21T07:16:22;11.20;;;7.57;;
62574;SDS011;53112;45.602;11.904;2023-03-21T07:18:49;10.23;;;7.55;;
62574;SDS011;53112;45.602;11.904;2023-03-21T07:21:15;10.32;;;7.43;;
62574;SDS011;53112;45.602;11.904;2023-03-21T07:23:43;11.35;;;7.97;;
62574;SDS011;53112;45.602;11.904;2023-03-21T07:26:09;11.90;;;7.90;;
62574;SDS011;53112;45.602;11.904;2023-03-21T07:28:35;11.35;;;7.35;;
62574;SDS011;53112;45.602;11.904;2023-03-21T07:31:03;10.02;;;7.45;;
62574;SDS011;53112;45.602;11.904;2023-03-21T07:33:30;12.10;;;7.78;;
62574;SDS011;53112;45.602;11.904;2023-03-21T07:35:58;10.63;;;7.05;;
62574;SDS011;53112;45.602;11.904;2023-03-21T07:38:24;11.25;;;7.43;;
62574;SDS011;53112;45.602;11.904;2023-03-21T07:40:51;9.93;;;7.03;;
62574;SDS011;53112;45.602;11.904;2023-03-21T07:43:18;9.73;;;7.07;;
62574;SDS011;53112;45.602;11.904;2023-03-21T07:45:44;10.85;;;6.97;;
62574;SDS011;53112;45.602;11.904;2023-03-21T07:48:11;9.82;;;6.93;;
62574;SDS011;53112;45.602;11.904;2023-03-21T07:50:37;10.68;;;7.40;;
62574;SDS011;53112;45.602;11.904;2023-03-21T07:53:06;11.82;;;7.05;;
62574;SDS011;53112;45.602;11.904;2023-03-21T07:55:33;10.60;;;6.72;;
62574;SDS011;53112;45.602;11.904;2023-03-21T07:57:59;11.38;;;6.60;;
62574;SDS011;53112;45.602;11.904;2023-03-21T08:00:26;10.55;;;6.78;;
62574;SDS011;53112;45.602;11.904;2023-03-21T08:02:53;12.73;;;6.97;;
62574;SDS011;53112;45.602;11.904;2023-03-21T08:05:20;11.50;;;6.93;;
62574;SDS011;53112;45.602;11.904;2023-03-21T08:07:47;10.80;;;6.85;;
62574;SDS011;53112;45.602;11.904;2023-03-21T08:10:14;9.60;;;6.88;;
62574;SDS011;53112;45.602;11.904;2023-03-21T08:12:40;10.93;;;6.75;;
62574;SDS011;53112;45.602;11.904;2023-03-21T08:15:06;12.57;;;6.78;;
62574;SDS011;53112;45.602;11.904;2023-03-21T08:17:33;10.40;;;6.75;;
62574;SDS011;53112;45.602;11.904;2023-03-21T08:20:05;12.55;;;7.30;;
62574;SDS011;53112;45.602;11.904;2023-03-21T08:22:33;11.05;;;7.20;;
62574;SDS011;53112;45.602;11.904;2023-03-21T08:25:01;10.60;;;7.15;;
62574;SDS011;53112;45.602;11.904;2023-03-21T08:27:29;10.48;;;7.05;;
62574;SDS011;53112;45.602;11.904;2023-03-21T08:29:57;11.00;;;7.30;;
62574;SDS011;53112;45.602;11.904;2023-03-21T08:32:23;9.55;;;7.05;;
62574;SDS011;53112;45.602;11.904;2023-03-21T08:34:54;9.38;;;6.95;;
62574;SDS011;53112;45.602;11.904;2023-03-21T08:37:22;10.27;;;6.85;;
62574;SDS011;53112;45.602;11.904;2023-03-21T08:39:49;9.30;;;6.72;;
62574;SDS011;53112;45.602;11.904;2023-03-21T08:42:15;9.77;;;6.68;;
62574;SDS011;53112;45.602;11.904;2023-03-21T08:44:42;10.07;;;7.15;;
62574;SDS011;53112;45.602;11.904;2023-03-21T08:47:08;10.57;;;7.22;;
62574;SDS011;53112;45.602;11.904;2023-03-21T08:49:34;11.05;;;7.68;;
62574;SDS011;53112;45.602;11.904;2023-03-21T08:52:00;11.18;;;7.53;;
62574;SDS011;53112;45.602;11.904;2023-03-21T08:54:26;12.57;;;8.20;;
62574;SDS011;53112;45.602;11.904;2023-03-21T08:56:52;11.93;;;7.50;;
62574;SDS011;53112;45.602;11.904;2023-03-21T08:59:19;13.32;;;7.75;;
62574;SDS011;53112;45.602;11.904;2023-03-21T09:01:45;9.35;;;7.22;;
62574;SDS011;53112;45.602;11.904;2023-03-21T09:04:11;11.40;;;7.30;;
62574;SDS011;53112;45.602;11.904;2023-03-21T09:06:37;10.25;;;7.13;;
62574;SDS011;53112;45.602;11.904;2023-03-21T09:09:13;10.63;;;7.40;;
62574;SDS011;53112;45.602;11.904;2023-03-21T09:11:40;11.57;;;7.38;;
62574;SDS011;53112;45.602;11.904;2023-03-21T09:14:07;11.13;;;7.57;;
62574;SDS011;53112;45.602;11.904;2023-03-21T09:16:33;9.55;;;7.43;;
62574;SDS011;53112;45.602;11.904;2023-03-21T09:18:59;11.50;;;7.75;;
62574;SDS011;53112;45.602;11.904;2023-03-21T09:21:27;10.00;;;6.97;;
62574;SDS011;53112;45.602;11.904;2023-03-21T09:23:53;11.88;;;7.13;;
62574;SDS011;53112;45.602;11.904;2023-03-21T09:26:23;11.07;;;7.20;;
62574;SDS011;53112;45.602;11.904;2023-03-21T09:28:50;9.52;;;6.90;;
62574;SDS011;53112;45.602;11.904;2023-03-21T09:31:17;12.82;;;7.57;;
62574;SDS011;53112;45.602;11.904;2023-03-21T09:33:50;10.18;;;7.65;;
62574;SDS011;53112;45.602;11.904;2023-03-21T09:36:17;11.77;;;7.32;;
62574;SDS011;53112;45.602;11.904;2023-03-21T09:38:45;9.30;;;7.00;;
62574;SDS011;53112;45.602;11.904;2023-03-21T09:49:05;10.30;;;6.60;;
62574;SDS011;53112;45.602;11.904;2023-03-21T09:51:41;9.23;;;6.70;;
62574;SDS011;53112;45.602;11.904;2023-03-21T09:54:27;9.77;;;6.85;;
62574;SDS011;53112;45.602;11.904;2023-03-21T09:57:00;9.73;;;7.07;;
62574;SDS011;53112;45.602;11.904;2023-03-21T09:59:37;11.25;;;7.45;;
62574;SDS011;53112;45.602;11.904;2023-03-21T10:04:46;11.57;;;7.75;;
62574;SDS011;53112;45.602;11.904;2023-03-21T10:07:12;11.57;;;7.63;;
62574;SDS011;53112;45.602;11.904;2023-03-21T10:09:42;10.23;;;7.22;;
62574;SDS011;53112;45.602;11.904;2023-03-21T10:12:14;11.30;;;7.20;;
62574;SDS011;53112;45.602;11.904;2023-03-21T10:14:52;10.55;;;7.30;;
62574;SDS011;53112;45.602;11.904;2023-03-21T10:17:32;9.50;;;7.40;;
62574;SDS011;53112;45.602;11.904;2023-03-21T10:22:45;11.02;;;6.63;;
62574;SDS011;53112;45.602;11.904;2023-03-21T10:25:15;10.07;;;7.20;;
62574;SDS011;53112;45.602;11.904;2023-03-21T10:28:03;9.35;;;7.13;;
62574;SDS011;53112;45.602;11.904;2023-03-21T10:33:05;12.13;;;7.57;;
62574;SDS011;53112;45.602;11.904;2023-03-21T10:35:46;10.65;;;7.68;;
62574;SDS011;53112;45.602;11.904;2023-03-21T10:38:20;10.38;;;7.43;;
62574;SDS011;53112;45.602;11.904;2023-03-21T10:40:49;11.63;;;7.57;;
62574;SDS011;53112;45.602;11.904;2023-03-21T10:45:50;12.38;;;9.15;;
62574;SDS011;53112;45.602;11.904;2023-03-21T10:48:17;13.27;;;8.77;;
62574;SDS011;53112;45.602;11.904;2023-03-21T10:50:45;13.55;;;8.98;;
62574;SDS011;53112;45.602;11.904;2023-03-21T10:53:15;11.98;;;9.07;;
62574;SDS011;53112;45.602;11.904;2023-03-21T10:55:53;12.15;;;9.00;;
62574;SDS011;53112;45.602;11.904;2023-03-21T10:58:24;12.52;;;8.85;;
62574;SDS011;53112;45.602;11.904;2023-03-21T11:01:00;12.45;;;9.60;;
62574;SDS011;53112;45.602;11.904;2023-03-21T11:03:31;12.95;;;9.52;;
62574;SDS011;53112;45.602;11.904;2023-03-21T11:06:04;12.32;;;9.63;;
62574;SDS011;53112;45.602;11.904;2023-03-21T11:08:37;13.60;;;9.77;;
62574;SDS011;53112;45.602;11.904;2023-03-21T11:11:20;14.55;;;9.60;;
62574;SDS011;53112;45.602;11.904;2023-03-21T11:13:56;12.13;;;8.98;;
62574;SDS011;53112;45.602;11.904;2023-03-21T11:16:25;11.20;;;8.32;;
62574;SDS011;53112;45.602;11.904;2023-03-21T11:19:01;13.57;;;9.05;;
62574;SDS011;53112;45.602;11.904;2023-03-21T11:21:34;13.20;;;9.25;;
62574;SDS011;53112;45.602;11.904;2023-03-21T11:24:04;10.85;;;8.48;;
62574;SDS011;53112;45.602;11.904;2023-03-21T11:26:35;11.82;;;8.57;;
62574;SDS011;53112;45.602;11.904;2023-03-21T11:32:19;11.73;;;8.40;;
62574;SDS011;53112;45.602;11.904;2023-03-21T11:34:49;12.05;;;8.25;;
62574;SDS011;53112;45.602;11.904;2023-03-21T11:40:21;11.45;;;8.48;;
62574;SDS011;53112;45.602;11.904;2023-03-21T11:45:55;12.25;;;8.70;;
62574;SDS011;53112;45.602;11.904;2023-03-21T11:48:24;10.68;;;7.53;;
62574;SDS011;53112;45.602;11.904;2023-03-21T11:50:54;11.13;;;7.97;;
62574;SDS011;53112;45.602;11.904;2023-03-21T11:53:33;11.77;;;8.52;;
62574;SDS011;53112;45.602;11.904;2023-03-21T11:56:31;12.70;;;8.93;;
62574;SDS011;53112;45.602;11.904;2023-03-21T12:01:59;11.45;;;7.78;;
62574;SDS011;53112;45.602;11.904;2023-03-21T12:13:47;9.18;;;6.97;;
62574;SDS011;53112;45.602;11.904;2023-03-21T12:21:41;11.82;;;7.22;;
62574;SDS011;53112;45.602;11.904;2023-03-21T12:24:29;10.18;;;7.47;;
62574;SDS011;53112;45.602;11.904;2023-03-21T12:27:18;10.00;;;6.82;;
62574;SDS011;53112;45.602;11.904;2023-03-21T12:32:51;9.57;;;6.70;;
62574;SDS011;53112;45.602;11.904;2023-03-21T12:35:29;8.88;;;6.60;;
62574;SDS011;53112;45.602;11.904;2023-03-21T12:43:30;8.77;;;6.53;;
62574;SDS011;53112;45.602;11.904;2023-03-21T12:46:08;9.48;;;7.13;;
62574;SDS011;53112;45.602;11.904;2023-03-21T12:48:46;10.85;;;7.55;;
62574;SDS011;53112;45.602;11.904;2023-03-21T12:51:30;12.50;;;8.35;;
62574;SDS011;53112;45.602;11.904;2023-03-21T12:54:07;11.88;;;8.23;;
62574;SDS011;53112;45.602;11.904;2023-03-21T12:59:42;11.40;;;7.15;;
62574;SDS011;53112;45.602;11.904;2023-03-21T13:02:16;10.88;;;7.25;;
62574;SDS011;53112;45.602;11.904;2023-03-21T13:05:04;9.13;;;6.47;;
62574;SDS011;53112;45.602;11.904;2023-03-21T13:07:42;8.57;;;5.93;;
62574;SDS011;53112;45.602;11.904;2023-03-21T13:10:15;7.68;;;5.50;;
62574;SDS011;53112;45.602;11.904;2023-03-21T13:21:10;10.77;;;8.30;;
62574;SDS011;53112;45.602;11.904;2023-03-21T13:24:00;10.60;;;5.72;;
62574;SDS011;53112;45.602;11.904;2023-03-21T13:26:31;7.65;;;5.60;;
62574;SDS011;53112;45.602;11.904;2023-03-21T13:29:13;8.63;;;6.10;;
62574;SDS011;53112;45.602;11.904;2023-03-21T13:31:58;8.57;;;6.28;;
62574;SDS011;53112;45.602;11.904;2023-03-21T13:34:36;9.45;;;6.90;;
62574;SDS011;53112;45.602;11.904;2023-03-21T13:37:04;10.13;;;7.50;;
62574;SDS011;53112;45.602;11.904;2023-03-21T13:39:30;9.02;;;6.65;;
62574;SDS011;53112;45.602;11.904;2023-03-21T13:42:00;9.20;;;6.28;;
62574;SDS011;53112;45.602;11.904;2023-03-21T13:44:31;11.02;;;6.88;;
62574;SDS011;53112;45.602;11.904;2023-03-21T13:47:05;8.70;;;6.20;;
62574;SDS011;53112;45.602;11.904;2023-03-21T13:52:40;8.23;;;6.43;;
62574;SDS011;53112;45.602;11.904;2023-03-21T13:55:18;12.93;;;7.30;;
62574;SDS011;53112;45.602;11.904;2023-03-21T13:57:47;8.68;;;5.85;;
62574;SDS011;53112;45.602;11.904;2023-03-21T14:00:18;7.90;;;6.00;;
62574;SDS011;53112;45.602;11.904;2023-03-21T14:05:22;8.75;;;6.15;;
62574;SDS011;53112;45.602;11.904;2023-03-21T14:07:52;8.23;;;5.95;;
62574;SDS011;53112;45.602;11.904;2023-03-21T14:10:37;7.65;;;5.43;;
62574;SDS011;53112;45.602;11.904;2023-03-21T14:13:08;9.45;;;6.45;;
62574;SDS011;53112;45.602;11.904;2023-03-21T14:15:43;8.40;;;5.43;;
62574;SDS011;53112;45.602;11.904;2023-03-21T14:18:19;9.52;;;6.18;;
62574;SDS011;53112;45.602;11.904;2023-03-21T14:20:53;8.32;;;5.82;;
62574;SDS011;53112;45.602;11.904;2023-03-21T14:23:21;8.73;;;5.95;;
62574;SDS011;53112;45.602;11.904;2023-03-21T14:25:48;8.25;;;5.93;;
62574;SDS011;53112;45.602;11.904;2023-03-21T14:28:25;8.13;;;5.63;;
62574;SDS011;53112;45.602;11.904;2023-03-21T14:30:55;7.55;;;5.63;;
62574;SDS011;53112;45.602;11.904;2023-03-21T14:35:58;7.60;;;5.10;;
62574;SDS011;53112;45.602;11.904;2023-03-21T14:38:35;7.30;;;5.38;;
62574;SDS011;53112;45.602;11.904;2023-03-21T14:41:03;7.50;;;5.85;;
62574;SDS011;53112;45.602;11.904;2023-03-21T14:43:30;8.38;;;6.10;;
62574;SDS011;53112;45.602;11.904;2023-03-21T14:45:58;7.43;;;5.60;;
62574;SDS011;53112;45.602;11.904;2023-03-21T14:48:32;7.90;;;5.20;;
62574;SDS011;53112;45.602;11.904;2023-03-21T14:51:03;9.18;;;5.68;;
62574;SDS011;53112;45.602;11.904;2023-03-21T14:53:37;7.60;;;5.40;;
62574;SDS011;53112;45.602;11.904;2023-03-21T14:56:09;8.20;;;5.03;;
62574;SDS011;53112;45.602;11.904;2023-03-21T14:58:45;8.48;;;6.03;;
62574;SDS011;53112;45.602;11.904;2023-03-21T15:01:13;8.25;;;5.00;;
62574;SDS011;53112;45.602;11.904;2023-03-21T15:03:52;6.68;;;4.45;;
62574;SDS011;53112;45.602;11.904;2023-03-21T15:06:18;9.60;;;5.95;;
62574;SDS011;53112;45.602;11.904;2023-03-21T15:08:54;7.53;;;4.88;;
62574;SDS011;53112;45.602;11.904;2023-03-21T15:11:32;8.80;;;6.60;;
62574;SDS011;53112;45.602;11.904;2023-03-21T15:14:01;6.45;;;4.57;;
62574;SDS011;53112;45.602;11.904;2023-03-21T15:16:29;8.18;;;5.00;;
62574;SDS011;53112;45.602;11.904;2023-03-21T15:18:56;8.25;;;6.15;;
62574;SDS011;53112;45.602;11.904;2023-03-21T15:21:39;9.55;;;6.93;;
62574;SDS011;53112;45.602;11.904;2023-03-21T15:24:13;8.82;;;6.07;;
62574;SDS011;53112;45.602;11.904;2023-03-21T15:26:56;7.75;;;5.15;;
62574;SDS011;53112;45.602;11.904;2023-03-21T15:29:27;8.75;;;6.00;;
62574;SDS011;53112;45.602;11.904;2023-03-21T15:31:54;7.63;;;4.90;;
62574;SDS011;53112;45.602;11.904;2023-03-21T15:34:24;7.28;;;4.55;;
62574;SDS011;53112;45.602;11.904;2023-03-21T15:36:54;7.70;;;5.28;;
62574;SDS011;53112;45.602;11.904;2023-03-21T15:39:31;8.65;;;5.40;;
62574;SDS011;53112;45.602;11.904;2023-03-21T15:42:02;6.78;;;4.57;;
62574;SDS011;53112;45.602;11.904;2023-03-21T15:44:28;7.90;;;5.72;;
62574;SDS011;53112;45.602;11.904;2023-03-21T15:46:54;11.57;;;7.57;;
62574;SDS011;53112;45.602;11.904;2023-03-21T15:49:25;10.32;;;7.13;;
62574;SDS011;53112;45.602;11.904;2023-03-21T15:54:30;9.13;;;5.95;;
62574;SDS011;53112;45.602;11.904;2023-03-21T16:02:45;8.45;;;5.90;;
62574;SDS011;53112;45.602;11.904;2023-03-21T16:05:24;7.15;;;5.10;;
62574;SDS011;53112;45.602;11.904;2023-03-21T16:08:05;6.47;;;4.68;;
62574;SDS011;53112;45.602;11.904;2023-03-21T16:10:45;8.00;;;5.57;;
62574;SDS011;53112;45.602;11.904;2023-03-21T16:13:13;7.15;;;5.15;;
62574;SDS011;53112;45.602;11.904;2023-03-21T16:15:39;7.78;;;5.47;;
62574;SDS011;53112;45.602;11.904;2023-03-21T16:18:05;6.57;;;4.57;;
62574;SDS011;53112;45.602;11.904;2023-03-21T16:20:37;5.50;;;3.90;;
62574;SDS011;53112;45.602;11.904;2023-03-21T16:23:05;7.50;;;4.95;;
62574;SDS011;53112;45.602;11.904;2023-03-21T16:25:31;7.55;;;5.10;;
62574;SDS011;53112;45.602;11.904;2023-03-21T16:27:57;6.05;;;4.20;;
62574;SDS011;53112;45.602;11.904;2023-03-21T16:30:24;6.03;;;4.00;;
62574;SDS011;53112;45.602;11.904;2023-03-21T16:32:50;5.57;;;3.88;;
62574;SDS011;53112;45.602;11.904;2023-03-21T16:35:16;5.85;;;3.95;;
62574;SDS011;53112;45.602;11.904;2023-03-21T16:37:42;5.55;;;4.07;;
62574;SDS011;53112;45.602;11.904;2023-03-21T16:40:16;5.72;;;3.97;;